• Join FlightAware (Why Join?)
  • Login
  • US Flag 
03:25PM EDT


 

Airport Tracker/Info


-or-


 

Live Flight TrackerFlight Track Log ✈ UAL5862 ✈ 05-May-2013 ✈ KORD - KLAN

Flight Track Log - Related Links

Times and Time Zones

All times are in EDT time to prevent confusion due to time zone crossing. See the UAL5862 flight status page for this flight to view local times or setup timezone preferences in your user account.

Time Position Orientation Groundspeed Altitude Reporting Facility
EDT Latitude Longitude Course Direction KTS MPH feet Rate Location/Type
10:32PM 41.9833 -87.8500 66° East 163 188 2,700  Level Chicago TRACON
10:33PM 42.0167 -87.8000 48° Northeast 220 253 4,500 2,340 Climbing Chicago TRACON
10:34PM 42.0500 -87.7000 66° East 262 302 7,700 2,520 Climbing Chicago TRACON
10:35PM 42.1088 -87.5094 59° Northeast  Level FlightAware Approximate
10:36PM 42.1512 -87.4130 66° East  Level FlightAware Approximate
10:36PM 42.1128 -87.5281 64° Northeast 270 311 12,500  Level Chicago Center
10:37PM 42.1854 -87.3107 66° East  Level FlightAware Approximate
10:37PM 42.1469 -87.4342 64° Northeast 279 321 13,900  Level Chicago Center
10:38PM 42.1878 -87.3197 64° Northeast 333 383 14,600 720 Climbing Chicago Center
10:39PM 42.2314 -87.1978 64° Northeast 359 413 15,400 780 Climbing Chicago Center
10:40PM 42.2756 -87.0686 65° Northeast 376 433 16,300 1,020 Climbing Chicago Center
10:41PM 42.2858 -86.8969 85° East 381 438 17,500 1,020 Climbing Chicago Center
10:42PM 42.2903 -86.7531 88° East 385 443 18,500 720 Climbing Chicago Center
10:43PM 42.2975 -86.6111 86° East 392 451 19,000 240 Climbing Chicago Center
10:44PM 42.3153 -86.4742 80° East 408 470 19,000  Level Chicago Center
10:45PM 42.3511 -86.3297 71° East 406 467 19,000  Level Chicago Center
10:46PM 42.3861 -86.1869 72° East 404 465 19,000 -480 Level Chicago Center
10:47PM 42.4219 -86.0478 71° East 398 458 18,100 -1,020 Descending Chicago Center
10:48PM 42.4644 -85.8769 71° East 402 463 17,000 -1,260 Descending Chicago Center
10:49PM 42.4994 -85.7389 71° East 394 453 15,600 -1,380 Descending Chicago Center
10:50PM 42.5331 -85.6036 71° East 386 444 14,200 -1,380 Descending Chicago Center
10:51PM 42.5656 -85.4708 72° East 379 436 12,800 -1,440 Descending Chicago Center
10:52PM 42.5964 -85.3433 72° East 368 423 11,300 -1,500 Descending Chicago Center
10:53PM 42.6239 -85.2344 71° East 327 376 9,800 -1,560 Descending Chicago Center
10:54PM 42.6469 -85.1375 72° East 284 327 8,200 -1,800 Descending Chicago Center
10:55PM 42.6686 -85.0458 72° East 263 303 6,200 -1,980 Descending Chicago Center
10:56PM 42.6919 -84.9528 71° East 261 300 4,200 -1,620 Descending Chicago Center
10:57PM 42.7167 -84.8453 73° East 253 291 3,000 -660 Descending Chicago Center
10:58PM 42.7386 -84.7664 69° East 235 270 2,900 -420 Descending Chicago Center
10:59PM 42.7756 -84.7167 45° Northeast 206 237 2,200 -420 Descending Chicago Center
11:00PM 42.7861 -84.6731 72° East 177 204 2,100 -120 Descending Chicago Center